Aeroporto :
LOGIN :

Iscrizione | Disclaimer

   EN    FR    IT 

 










Sommario :    VFR   VFR Marginale   IFR   IFR Intensivo   IFR Molto Intensivo
Visibilità : 
Base nubi : 
>= 8 km
>= 3000ft
5 / 8 km
1000 / 3000 ft
1500m / 5 km
500 / 1000 ft
800 / 1500m
200 / 500 ft
< 800m
< 200 ft
Simboli :   Temporali  Nebbia  Neve Forte  Precipitazioni Forti  Vento > 20 kt
SIGMETs :   Varie  Temporali  Ghiacco  Turbolenza  Onda orograficha  Ceneri Vulcaniche






- Altitudine del aeroporto : 36 ft
- Codice IATA : LTQ


LFAT - Le Touquet

ULTIMO METAR :
  • 300830Z AUTO 13004KT 9999 SCT037 BKN062 11/09 Q1010 BECMG 19010KT

METARs OBSOLETI :
  • 300800Z AUTO 14005KT 9999 FEW041 10/08 Q1010 NOSIG
  • 300730Z AUTO 14004KT 9999 FEW036 SCT050 09/08 Q1010 NOSIG
  • 300700Z AUTO 14004KT 9999 SCT038 07/06 Q1010 TEMPO 0500 FG VV///
  • 300630Z AUTO 15004KT 8000 NSC 06/05 Q1010 TEMPO 0500 FG VV///
  • 300600Z AUTO 15005KT 8000 FEW040 05/05 Q1010

TAF TAF LFAT
Valido dal 30 a 06 ore il 30 a 15 ore UTC


300500Z 3006/3015 13004KT 8000 SCT040
PROB30
TEMPO 3006/3008 0500 FG VV///
BECMG 3008/3010 19010KT
ATIS : +33 3 21 06 62 84



MetMap, La meteo Aeronautica in un colpo d'occhio ! - Copyright ORBIFLY Dicembre 2007 - Disclaimer

ORBIFLY MET'MAP TEAM :

Programmazione e sviluppo : Alexandra Zaïnal
Concezione : Baudouin d'Aumeries
Supporto tecnico e logistico : Manuel Goepfert
Aiuto : Marc-Olivier Méhu
Aiuto per la traduzione : Arnaldo La Scala




FONTI E CREDITI :

   NOAA